sensor_id;sensor_type;location;lat;lon;timestamp;temperature;humidity
46159;DHT22;31888;44.512;26.104;2023-06-10T00:02:19;21.50;89.50
46159;DHT22;31888;44.512;26.104;2023-06-10T00:04:45;20.90;90.50
46159;DHT22;31888;44.512;26.104;2023-06-10T00:07:10;20.50;91.30
46159;DHT22;31888;44.512;26.104;2023-06-10T00:09:36;20.30;92.00
46159;DHT22;31888;44.512;26.104;2023-06-10T00:12:01;19.90;92.50
46159;DHT22;31888;44.512;26.104;2023-06-10T00:14:25;19.70;93.40
46159;DHT22;31888;44.512;26.104;2023-06-10T00:16:50;19.30;93.90
46159;DHT22;31888;44.512;26.104;2023-06-10T00:19:17;19.30;94.40
46159;DHT22;31888;44.512;26.104;2023-06-10T00:21:42;19.20;94.60
46159;DHT22;31888;44.512;26.104;2023-06-10T00:24:08;19.20;94.70
46159;DHT22;31888;44.512;26.104;2023-06-10T00:26:35;19.10;95.00
46159;DHT22;31888;44.512;26.104;2023-06-10T00:29:01;19.10;95.30
46159;DHT22;31888;44.512;26.104;2023-06-10T00:31:26;18.80;96.00
46159;DHT22;31888;44.512;26.104;2023-06-10T00:33:51;19.00;95.90
46159;DHT22;31888;44.512;26.104;2023-06-10T00:36:17;19.00;95.80
46159;DHT22;31888;44.512;26.104;2023-06-10T00:38:42;19.00;96.10
46159;DHT22;31888;44.512;26.104;2023-06-10T00:41:06;18.80;96.30
46159;DHT22;31888;44.512;26.104;2023-06-10T00:43:31;18.80;96.60
46159;DHT22;31888;44.512;26.104;2023-06-10T00:45:56;18.70;96.70
46159;DHT22;31888;44.512;26.104;2023-06-10T00:48:21;18.70;97.00
46159;DHT22;31888;44.512;26.104;2023-06-10T00:50:46;18.50;97.20
46159;DHT22;31888;44.512;26.104;2023-06-10T00:53:13;18.60;97.30
46159;DHT22;31888;44.512;26.104;2023-06-10T00:55:41;18.50;97.40
46159;DHT22;31888;44.512;26.104;2023-06-10T01:08:31;18.50;97.60
46159;DHT22;31888;44.512;26.104;2023-06-10T01:11:00;18.50;97.60
46159;DHT22;31888;44.512;26.104;2023-06-10T01:13:27;18.50;97.60
46159;DHT22;31888;44.512;26.104;2023-06-10T01:15:54;18.50;97.70
46159;DHT22;31888;44.512;26.104;2023-06-10T01:18:20;18.60;97.70
46159;DHT22;31888;44.512;26.104;2023-06-10T01:20:44;18.60;97.50
46159;DHT22;31888;44.512;26.104;2023-06-10T01:23:11;18.70;97.40
46159;DHT22;31888;44.512;26.104;2023-06-10T01:25:38;18.80;97.40
46159;DHT22;31888;44.512;26.104;2023-06-10T01:28:07;18.80;97.20
46159;DHT22;31888;44.512;26.104;2023-06-10T01:30:39;18.60;97.60
46159;DHT22;31888;44.512;26.104;2023-06-10T01:33:08;18.40;97.90
46159;DHT22;31888;44.512;26.104;2023-06-10T01:35:37;18.30;98.20
46159;DHT22;31888;44.512;26.104;2023-06-10T01:38:04;18.20;98.50
46159;DHT22;31888;44.512;26.104;2023-06-10T01:40:33;18.20;98.80
46159;DHT22;31888;44.512;26.104;2023-06-10T01:42:58;18.10;98.90
46159;DHT22;31888;44.512;26.104;2023-06-10T01:45:23;18.00;99.10
46159;DHT22;31888;44.512;26.104;2023-06-10T01:47:48;18.00;99.30
46159;DHT22;31888;44.512;26.104;2023-06-10T01:50:13;18.00;99.30
46159;DHT22;31888;44.512;26.104;2023-06-10T01:52:40;18.10;99.20
46159;DHT22;31888;44.512;26.104;2023-06-10T01:55:06;18.10;99.20
46159;DHT22;31888;44.512;26.104;2023-06-10T01:57:41;18.00;99.30
46159;DHT22;31888;44.512;26.104;2023-06-10T02:00:10;18.00;99.30
46159;DHT22;31888;44.512;26.104;2023-06-10T02:02:44;18.10;99.20
46159;DHT22;31888;44.512;26.104;2023-06-10T02:05:10;18.20;99.40
46159;DHT22;31888;44.512;26.104;2023-06-10T02:07:35;18.10;99.20
46159;DHT22;31888;44.512;26.104;2023-06-10T02:10:01;18.20;99.10
46159;DHT22;31888;44.512;26.104;2023-06-10T02:12:27;18.30;98.90
46159;DHT22;31888;44.512;26.104;2023-06-10T02:14:53;18.30;98.90
46159;DHT22;31888;44.512;26.104;2023-06-10T02:17:18;18.20;99.00
46159;DHT22;31888;44.512;26.104;2023-06-10T02:20:03;18.20;99.10
46159;DHT22;31888;44.512;26.104;2023-06-10T02:22:30;18.10;99.60
46159;DHT22;31888;44.512;26.104;2023-06-10T02:24:56;17.80;99.90
46159;DHT22;31888;44.512;26.104;2023-06-10T02:27:20;17.60;99.90
46159;DHT22;31888;44.512;26.104;2023-06-10T02:29:45;17.70;99.90
46159;DHT22;31888;44.512;26.104;2023-06-10T02:32:11;17.70;99.90
46159;DHT22;31888;44.512;26.104;2023-06-10T02:34:38;17.60;99.90
46159;DHT22;31888;44.512;26.104;2023-06-10T02:37:03;17.60;99.90
46159;DHT22;31888;44.512;26.104;2023-06-10T02:39:29;17.70;99.90
46159;DHT22;31888;44.512;26.104;2023-06-10T02:41:54;17.70;99.90
46159;DHT22;31888;44.512;26.104;2023-06-10T02:44:19;17.70;99.90
46159;DHT22;31888;44.512;26.104;2023-06-10T02:46:44;17.80;99.90
46159;DHT22;31888;44.512;26.104;2023-06-10T02:49:11;17.80;99.90
46159;DHT22;31888;44.512;26.104;2023-06-10T02:51:36;17.80;99.90
46159;DHT22;31888;44.512;26.104;2023-06-10T02:54:01;17.90;99.90
46159;DHT22;31888;44.512;26.104;2023-06-10T02:56:26;18.00;99.80
46159;DHT22;31888;44.512;26.104;2023-06-10T02:58:53;18.00;99.60
46159;DHT22;31888;44.512;26.104;2023-06-10T03:01:20;18.20;99.60
46159;DHT22;31888;44.512;26.104;2023-06-10T03:03:52;18.30;99.30
46159;DHT22;31888;44.512;26.104;2023-06-10T03:06:21;18.30;99.10
46159;DHT22;31888;44.512;26.104;2023-06-10T03:08:49;18.40;99.00
46159;DHT22;31888;44.512;26.104;2023-06-10T03:11:15;18.50;98.80
46159;DHT22;31888;44.512;26.104;2023-06-10T03:13:39;18.60;98.70
46159;DHT22;31888;44.512;26.104;2023-06-10T03:16:11;18.70;98.40
46159;DHT22;31888;44.512;26.104;2023-06-10T03:18:49;18.90;98.40
46159;DHT22;31888;44.512;26.104;2023-06-10T03:21:14;19.10;97.70
46159;DHT22;31888;44.512;26.104;2023-06-10T03:23:40;19.30;97.40
46159;DHT22;31888;44.512;26.104;2023-06-10T03:26:05;19.50;96.90
46159;DHT22;31888;44.512;26.104;2023-06-10T03:28:33;19.70;96.60
46159;DHT22;31888;44.512;26.104;2023-06-10T03:30:58;19.70;96.50
46159;DHT22;31888;44.512;26.104;2023-06-10T03:33:25;19.70;96.40
46159;DHT22;31888;44.512;26.104;2023-06-10T03:35:50;19.70;96.40
46159;DHT22;31888;44.512;26.104;2023-06-10T03:38:16;19.60;96.20
46159;DHT22;31888;44.512;26.104;2023-06-10T03:40:42;19.80;96.60
46159;DHT22;31888;44.512;26.104;2023-06-10T03:43:07;19.80;96.00
46159;DHT22;31888;44.512;26.104;2023-06-10T03:45:32;20.00;96.20
46159;DHT22;31888;44.512;26.104;2023-06-10T03:47:57;20.20;95.50
46159;DHT22;31888;44.512;26.104;2023-06-10T03:50:29;20.20;95.50
46159;DHT22;31888;44.512;26.104;2023-06-10T03:52:54;20.30;95.30
46159;DHT22;31888;44.512;26.104;2023-06-10T03:55:22;20.40;95.10
46159;DHT22;31888;44.512;26.104;2023-06-10T03:57:48;20.40;94.90
46159;DHT22;31888;44.512;26.104;2023-06-10T04:00:15;20.60;95.10
46159;DHT22;31888;44.512;26.104;2023-06-10T04:02:40;20.70;94.80
46159;DHT22;31888;44.512;26.104;2023-06-10T04:05:16;20.80;94.60
46159;DHT22;31888;44.512;26.104;2023-06-10T04:07:41;21.20;93.90
46159;DHT22;31888;44.512;26.104;2023-06-10T04:10:08;21.50;93.40
46159;DHT22;31888;44.512;26.104;2023-06-10T04:12:33;21.50;93.50
46159;DHT22;31888;44.512;26.104;2023-06-10T04:14:59;21.60;92.80
46159;DHT22;31888;44.512;26.104;2023-06-10T04:17:26;21.90;92.50
46159;DHT22;31888;44.512;26.104;2023-06-10T04:19:51;21.70;92.50
46159;DHT22;31888;44.512;26.104;2023-06-10T04:22:19;22.00;92.30
46159;DHT22;31888;44.512;26.104;2023-06-10T04:24:43;22.40;91.80
46159;DHT22;31888;44.512;26.104;2023-06-10T04:27:08;22.50;91.90
46159;DHT22;31888;44.512;26.104;2023-06-10T04:29:33;22.50;91.20
46159;DHT22;31888;44.512;26.104;2023-06-10T04:32:00;22.50;91.40
46159;DHT22;31888;44.512;26.104;2023-06-10T04:34:27;22.70;91.10
46159;DHT22;31888;44.512;26.104;2023-06-10T04:36:53;22.50;91.20
46159;DHT22;31888;44.512;26.104;2023-06-10T04:39:17;22.40;91.10
46159;DHT22;31888;44.512;26.104;2023-06-10T04:41:43;22.40;91.40
46159;DHT22;31888;44.512;26.104;2023-06-10T04:44:08;22.40;91.50
46159;DHT22;31888;44.512;26.104;2023-06-10T04:46:34;22.10;91.50
46159;DHT22;31888;44.512;26.104;2023-06-10T04:49:00;21.80;91.90
46159;DHT22;31888;44.512;26.104;2023-06-10T04:51:24;22.00;91.90
46159;DHT22;31888;44.512;26.104;2023-06-10T04:53:49;21.90;91.80
46159;DHT22;31888;44.512;26.104;2023-06-10T04:56:14;22.00;92.00
46159;DHT22;31888;44.512;26.104;2023-06-10T04:58:39;22.00;91.90
46159;DHT22;31888;44.512;26.104;2023-06-10T05:01:03;22.10;92.10
46159;DHT22;31888;44.512;26.104;2023-06-10T05:03:28;22.10;92.00
46159;DHT22;31888;44.512;26.104;2023-06-10T05:05:55;22.00;92.30
46159;DHT22;31888;44.512;26.104;2023-06-10T05:08:31;22.10;92.50
46159;DHT22;31888;44.512;26.104;2023-06-10T05:10:56;22.30;92.60
46159;DHT22;31888;44.512;26.104;2023-06-10T05:13:24;22.40;92.00
46159;DHT22;31888;44.512;26.104;2023-06-10T05:15:49;22.70;91.50
46159;DHT22;31888;44.512;26.104;2023-06-10T05:18:14;22.70;91.80
46159;DHT22;31888;44.512;26.104;2023-06-10T05:20:38;23.00;91.30
46159;DHT22;31888;44.512;26.104;2023-06-10T05:23:05;23.00;91.00
46159;DHT22;31888;44.512;26.104;2023-06-10T05:25:30;23.00;90.80
46159;DHT22;31888;44.512;26.104;2023-06-10T05:27:56;23.00;90.70
46159;DHT22;31888;44.512;26.104;2023-06-10T05:30:22;23.20;90.70
46159;DHT22;31888;44.512;26.104;2023-06-10T05:32:49;23.10;90.90
46159;DHT22;31888;44.512;26.104;2023-06-10T05:35:15;23.40;90.40
46159;DHT22;31888;44.512;26.104;2023-06-10T05:37:40;23.60;90.20
46159;DHT22;31888;44.512;26.104;2023-06-10T05:40:09;23.70;89.90
46159;DHT22;31888;44.512;26.104;2023-06-10T05:42:35;23.50;90.20
46159;DHT22;31888;44.512;26.104;2023-06-10T05:45:00;23.80;89.60
46159;DHT22;31888;44.512;26.104;2023-06-10T05:47:27;23.90;90.10
46159;DHT22;31888;44.512;26.104;2023-06-10T05:49:53;24.20;88.70
46159;DHT22;31888;44.512;26.104;2023-06-10T05:52:18;24.10;89.10
46159;DHT22;31888;44.512;26.104;2023-06-10T05:54:43;24.00;89.90
46159;DHT22;31888;44.512;26.104;2023-06-10T05:57:10;23.90;89.80
46159;DHT22;31888;44.512;26.104;2023-06-10T05:59:35;23.80;90.00
46159;DHT22;31888;44.512;26.104;2023-06-10T06:02:00;23.90;89.80
46159;DHT22;31888;44.512;26.104;2023-06-10T06:04:25;23.90;89.90
46159;DHT22;31888;44.512;26.104;2023-06-10T06:06:50;24.10;89.30
46159;DHT22;31888;44.512;26.104;2023-06-10T06:09:15;24.20;89.10
46159;DHT22;31888;44.512;26.104;2023-06-10T06:11:40;24.30;88.80
46159;DHT22;31888;44.512;26.104;2023-06-10T06:14:07;24.70;88.00
46159;DHT22;31888;44.512;26.104;2023-06-10T06:16:34;24.60;88.40
46159;DHT22;31888;44.512;26.104;2023-06-10T06:18:59;24.50;88.00
46159;DHT22;31888;44.512;26.104;2023-06-10T06:21:25;24.40;88.40
46159;DHT22;31888;44.512;26.104;2023-06-10T06:23:50;24.20;88.90
46159;DHT22;31888;44.512;26.104;2023-06-10T06:26:16;24.10;89.40
46159;DHT22;31888;44.512;26.104;2023-06-10T06:28:41;24.00;89.60
46159;DHT22;31888;44.512;26.104;2023-06-10T06:31:09;24.30;88.90
46159;DHT22;31888;44.512;26.104;2023-06-10T06:33:53;24.50;88.30
46159;DHT22;31888;44.512;26.104;2023-06-10T06:36:30;24.50;88.10
46159;DHT22;31888;44.512;26.104;2023-06-10T06:38:55;24.50;88.30
46159;DHT22;31888;44.512;26.104;2023-06-10T06:41:25;24.40;88.60
46159;DHT22;31888;44.512;26.104;2023-06-10T06:43:53;24.50;88.30
46159;DHT22;31888;44.512;26.104;2023-06-10T06:46:28;24.70;88.10
46159;DHT22;31888;44.512;26.104;2023-06-10T06:48:54;25.00;87.30
46159;DHT22;31888;44.512;26.104;2023-06-10T06:51:19;25.10;87.50
46159;DHT22;31888;44.512;26.104;2023-06-10T06:53:45;25.20;86.40
46159;DHT22;31888;44.512;26.104;2023-06-10T06:56:10;25.40;86.30
46159;DHT22;31888;44.512;26.104;2023-06-10T06:58:35;25.50;86.50
46159;DHT22;31888;44.512;26.104;2023-06-10T07:01:01;25.60;85.80
46159;DHT22;31888;44.512;26.104;2023-06-10T07:03:30;25.70;85.10
46159;DHT22;31888;44.512;26.104;2023-06-10T07:05:56;25.90;83.90
46159;DHT22;31888;44.512;26.104;2023-06-10T07:08:21;26.00;83.70
46159;DHT22;31888;44.512;26.104;2023-06-10T07:10:49;26.00;82.90
46159;DHT22;31888;44.512;26.104;2023-06-10T07:13:14;26.20;83.40
46159;DHT22;31888;44.512;26.104;2023-06-10T07:15:39;26.30;83.10
46159;DHT22;31888;44.512;26.104;2023-06-10T07:18:04;26.60;82.90
46159;DHT22;31888;44.512;26.104;2023-06-10T07:20:30;26.40;81.50
46159;DHT22;31888;44.512;26.104;2023-06-10T07:22:56;26.50;82.00
46159;DHT22;31888;44.512;26.104;2023-06-10T07:25:22;26.50;82.00
46159;DHT22;31888;44.512;26.104;2023-06-10T07:27:46;26.50;81.10
46159;DHT22;31888;44.512;26.104;2023-06-10T07:30:12;26.80;81.40
46159;DHT22;31888;44.512;26.104;2023-06-10T07:32:37;26.80;79.60
46159;DHT22;31888;44.512;26.104;2023-06-10T07:35:03;27.10;77.90
46159;DHT22;31888;44.512;26.104;2023-06-10T07:37:30;27.20;77.50
46159;DHT22;31888;44.512;26.104;2023-06-10T07:39:55;27.40;77.40
46159;DHT22;31888;44.512;26.104;2023-06-10T07:42:21;27.50;75.50
46159;DHT22;31888;44.512;26.104;2023-06-10T07:44:45;27.50;76.60
46159;DHT22;31888;44.512;26.104;2023-06-10T07:47:10;27.50;76.80
46159;DHT22;31888;44.512;26.104;2023-06-10T07:49:38;28.00;76.90
46159;DHT22;31888;44.512;26.104;2023-06-10T07:52:06;28.30;75.70
46159;DHT22;31888;44.512;26.104;2023-06-10T07:54:35;28.10;76.00
46159;DHT22;31888;44.512;26.104;2023-06-10T07:57:00;28.20;75.90
46159;DHT22;31888;44.512;26.104;2023-06-10T07:59:25;28.30;76.20
46159;DHT22;31888;44.512;26.104;2023-06-10T08:01:50;28.40;75.60
46159;DHT22;31888;44.512;26.104;2023-06-10T08:04:17;28.80;75.60
46159;DHT22;31888;44.512;26.104;2023-06-10T08:06:42;28.80;75.10
46159;DHT22;31888;44.512;26.104;2023-06-10T08:09:07;28.80;74.60
46159;DHT22;31888;44.512;26.104;2023-06-10T08:11:34;28.80;74.80
46159;DHT22;31888;44.512;26.104;2023-06-10T08:13:59;28.80;75.30
46159;DHT22;31888;44.512;26.104;2023-06-10T08:16:24;29.00;75.60
46159;DHT22;31888;44.512;26.104;2023-06-10T08:18:49;29.00;73.60
46159;DHT22;31888;44.512;26.104;2023-06-10T08:21:17;28.70;74.20
46159;DHT22;31888;44.512;26.104;2023-06-10T08:23:42;28.50;72.00
46159;DHT22;31888;44.512;26.104;2023-06-10T08:26:08;28.20;72.70
46159;DHT22;31888;44.512;26.104;2023-06-10T08:28:36;28.00;73.30
46159;DHT22;31888;44.512;26.104;2023-06-10T08:33:51;27.70;73.40
46159;DHT22;31888;44.512;26.104;2023-06-10T08:36:36;27.80;73.60
46159;DHT22;31888;44.512;26.104;2023-06-10T08:39:01;27.90;72.20
46159;DHT22;31888;44.512;26.104;2023-06-10T08:41:28;28.40;71.90
46159;DHT22;31888;44.512;26.104;2023-06-10T08:44:02;28.70;71.00
46159;DHT22;31888;44.512;26.104;2023-06-10T08:46:31;29.20;70.80
46159;DHT22;31888;44.512;26.104;2023-06-10T08:49:00;29.30;69.70
46159;DHT22;31888;44.512;26.104;2023-06-10T08:51:28;29.20;70.50
46159;DHT22;31888;44.512;26.104;2023-06-10T08:54:00;29.40;71.30
46159;DHT22;31888;44.512;26.104;2023-06-10T08:56:26;29.40;68.50
46159;DHT22;31888;44.512;26.104;2023-06-10T08:58:53;29.60;68.00
46159;DHT22;31888;44.512;26.104;2023-06-10T09:01:22;29.30;65.70
46159;DHT22;31888;44.512;26.104;2023-06-10T09:03:48;29.40;66.30
46159;DHT22;31888;44.512;26.104;2023-06-10T09:06:16;29.50;66.90
46159;DHT22;31888;44.512;26.104;2023-06-10T09:08:43;29.90;67.00
46159;DHT22;31888;44.512;26.104;2023-06-10T09:11:10;30.30;65.80
46159;DHT22;31888;44.512;26.104;2023-06-10T09:13:35;30.40;65.60
46159;DHT22;31888;44.512;26.104;2023-06-10T09:15:59;30.40;64.00
46159;DHT22;31888;44.512;26.104;2023-06-10T09:18:28;30.50;64.30
46159;DHT22;31888;44.512;26.104;2023-06-10T09:20:53;30.70;62.50
46159;DHT22;31888;44.512;26.104;2023-06-10T09:23:22;30.30;63.00
46159;DHT22;31888;44.512;26.104;2023-06-10T09:25:56;30.30;63.70
46159;DHT22;31888;44.512;26.104;2023-06-10T09:28:21;30.30;62.90
46159;DHT22;31888;44.512;26.104;2023-06-10T09:30:47;29.90;60.10
46159;DHT22;31888;44.512;26.104;2023-06-10T09:33:13;29.60;61.50
46159;DHT22;31888;44.512;26.104;2023-06-10T09:35:47;29.70;61.10
46159;DHT22;31888;44.512;26.104;2023-06-10T09:38:14;30.20;58.70
46159;DHT22;31888;44.512;26.104;2023-06-10T09:40:48;30.40;59.80
46159;DHT22;31888;44.512;26.104;2023-06-10T09:43:18;30.40;61.40
46159;DHT22;31888;44.512;26.104;2023-06-10T09:45:51;30.30;61.40
46159;DHT22;31888;44.512;26.104;2023-06-10T09:48:17;30.30;61.90
46159;DHT22;31888;44.512;26.104;2023-06-10T09:50:43;30.60;60.50
46159;DHT22;31888;44.512;26.104;2023-06-10T09:53:10;30.40;59.80
46159;DHT22;31888;44.512;26.104;2023-06-10T09:55:37;30.30;59.80
46159;DHT22;31888;44.512;26.104;2023-06-10T09:58:03;30.30;59.20
46159;DHT22;31888;44.512;26.104;2023-06-10T10:00:35;29.80;59.80
46159;DHT22;31888;44.512;26.104;2023-06-10T10:03:01;29.30;60.80
46159;DHT22;31888;44.512;26.104;2023-06-10T10:05:27;29.40;60.70
46159;DHT22;31888;44.512;26.104;2023-06-10T10:07:53;29.90;59.40
46159;DHT22;31888;44.512;26.104;2023-06-10T10:10:22;29.80;58.60
46159;DHT22;31888;44.512;26.104;2023-06-10T10:12:50;30.00;58.80
46159;DHT22;31888;44.512;26.104;2023-06-10T10:15:17;30.10;59.30
46159;DHT22;31888;44.512;26.104;2023-06-10T10:17:55;30.10;58.80
46159;DHT22;31888;44.512;26.104;2023-06-10T10:20:29;30.10;58.70
46159;DHT22;31888;44.512;26.104;2023-06-10T10:22:57;30.10;59.00
46159;DHT22;31888;44.512;26.104;2023-06-10T10:25:27;29.90;59.40
46159;DHT22;31888;44.512;26.104;2023-06-10T10:28:02;30.00;58.90
46159;DHT22;31888;44.512;26.104;2023-06-10T10:30:30;29.90;58.70
46159;DHT22;31888;44.512;26.104;2023-06-10T10:33:05;29.90;59.20
46159;DHT22;31888;44.512;26.104;2023-06-10T10:35:34;29.90;58.40
46159;DHT22;31888;44.512;26.104;2023-06-10T10:38:00;29.80;57.90
46159;DHT22;31888;44.512;26.104;2023-06-10T10:40:49;30.00;58.00
46159;DHT22;31888;44.512;26.104;2023-06-10T10:43:24;30.00;58.60
46159;DHT22;31888;44.512;26.104;2023-06-10T10:45:58;29.70;57.70
46159;DHT22;31888;44.512;26.104;2023-06-10T10:48:25;29.70;58.00
46159;DHT22;31888;44.512;26.104;2023-06-10T10:51:02;29.80;58.30
46159;DHT22;31888;44.512;26.104;2023-06-10T10:53:34;30.00;58.20
46159;DHT22;31888;44.512;26.104;2023-06-10T10:56:06;30.10;58.20
46159;DHT22;31888;44.512;26.104;2023-06-10T10:58:35;29.80;58.60
46159;DHT22;31888;44.512;26.104;2023-06-10T11:01:11;29.70;58.80
46159;DHT22;31888;44.512;26.104;2023-06-10T11:03:44;30.00;57.70
46159;DHT22;31888;44.512;26.104;2023-06-10T11:06:13;30.30;58.40
46159;DHT22;31888;44.512;26.104;2023-06-10T11:08:46;30.10;59.60
46159;DHT22;31888;44.512;26.104;2023-06-10T11:11:21;29.30;60.70
46159;DHT22;31888;44.512;26.104;2023-06-10T11:13:58;28.80;60.70
46159;DHT22;31888;44.512;26.104;2023-06-10T11:16:26;28.70;61.50
46159;DHT22;31888;44.512;26.104;2023-06-10T11:19:01;28.70;61.40
46159;DHT22;31888;44.512;26.104;2023-06-10T11:21:27;28.70;61.60
46159;DHT22;31888;44.512;26.104;2023-06-10T11:23:58;28.60;62.10
46159;DHT22;31888;44.512;26.104;2023-06-10T11:26:35;28.80;62.00
46159;DHT22;31888;44.512;26.104;2023-06-10T11:29:18;28.80;62.80
46159;DHT22;31888;44.512;26.104;2023-06-10T11:31:50;28.80;61.80
46159;DHT22;31888;44.512;26.104;2023-06-10T11:34:22;28.60;61.70
46159;DHT22;31888;44.512;26.104;2023-06-10T11:36:54;28.30;61.90
46159;DHT22;31888;44.512;26.104;2023-06-10T11:39:23;28.30;62.10
46159;DHT22;31888;44.512;26.104;2023-06-10T11:41:52;28.40;62.80
46159;DHT22;31888;44.512;26.104;2023-06-10T11:44:19;28.60;62.70
46159;DHT22;31888;44.512;26.104;2023-06-10T11:46:45;28.40;62.80
46159;DHT22;31888;44.512;26.104;2023-06-10T11:49:12;28.60;63.40
46159;DHT22;31888;44.512;26.104;2023-06-10T11:51:43;28.70;62.60
46159;DHT22;31888;44.512;26.104;2023-06-10T11:54:14;28.60;61.80
46159;DHT22;31888;44.512;26.104;2023-06-10T11:56:41;28.70;62.10
46159;DHT22;31888;44.512;26.104;2023-06-10T11:59:12;28.90;62.50
46159;DHT22;31888;44.512;26.104;2023-06-10T12:01:42;29.30;61.60
46159;DHT22;31888;44.512;26.104;2023-06-10T12:04:13;29.80;61.20
46159;DHT22;31888;44.512;26.104;2023-06-10T12:06:44;30.10;60.90
46159;DHT22;31888;44.512;26.104;2023-06-10T12:09:19;30.40;60.00
46159;DHT22;31888;44.512;26.104;2023-06-10T12:11:53;30.70;60.20
46159;DHT22;31888;44.512;26.104;2023-06-10T12:14:55;30.70;59.80
46159;DHT22;31888;44.512;26.104;2023-06-10T12:17:34;31.00;59.00
46159;DHT22;31888;44.512;26.104;2023-06-10T12:20:02;31.10;59.20
46159;DHT22;31888;44.512;26.104;2023-06-10T12:22:39;30.40;59.90
46159;DHT22;31888;44.512;26.104;2023-06-10T12:25:08;30.30;60.50
46159;DHT22;31888;44.512;26.104;2023-06-10T12:27:35;30.20;60.20
46159;DHT22;31888;44.512;26.104;2023-06-10T12:30:06;30.20;60.40
46159;DHT22;31888;44.512;26.104;2023-06-10T12:32:42;30.30;60.70
46159;DHT22;31888;44.512;26.104;2023-06-10T12:35:08;30.70;60.40
46159;DHT22;31888;44.512;26.104;2023-06-10T12:37:55;30.80;60.10
46159;DHT22;31888;44.512;26.104;2023-06-10T12:40:27;30.40;60.00
46159;DHT22;31888;44.512;26.104;2023-06-10T12:42:58;30.30;59.60
46159;DHT22;31888;44.512;26.104;2023-06-10T12:45:31;30.40;59.60
46159;DHT22;31888;44.512;26.104;2023-06-10T12:48:09;30.60;60.10
46159;DHT22;31888;44.512;26.104;2023-06-10T12:50:50;30.80;59.80
46159;DHT22;31888;44.512;26.104;2023-06-10T12:53:16;30.00;60.60
46159;DHT22;31888;44.512;26.104;2023-06-10T12:55:41;29.40;61.60
46159;DHT22;31888;44.512;26.104;2023-06-10T12:58:08;29.30;61.20
46159;DHT22;31888;44.512;26.104;2023-06-10T13:00:37;29.40;61.90
46159;DHT22;31888;44.512;26.104;2023-06-10T13:03:03;29.60;61.40
46159;DHT22;31888;44.512;26.104;2023-06-10T13:05:31;29.30;61.50
46159;DHT22;31888;44.512;26.104;2023-06-10T13:07:59;29.30;61.70
46159;DHT22;31888;44.512;26.104;2023-06-10T13:10:29;29.30;62.00
46159;DHT22;31888;44.512;26.104;2023-06-10T13:12:56;29.30;62.00
46159;DHT22;31888;44.512;26.104;2023-06-10T13:15:27;29.50;61.90
46159;DHT22;31888;44.512;26.104;2023-06-10T13:17:57;29.30;61.90
46159;DHT22;31888;44.512;26.104;2023-06-10T13:20:24;28.90;61.60
46159;DHT22;31888;44.512;26.104;2023-06-10T13:22:49;28.80;61.50
46159;DHT22;31888;44.512;26.104;2023-06-10T13:25:17;28.60;60.50
46159;DHT22;31888;44.512;26.104;2023-06-10T13:27:57;28.50;61.00
46159;DHT22;31888;44.512;26.104;2023-06-10T13:30:26;28.40;61.10
46159;DHT22;31888;44.512;26.104;2023-06-10T13:33:00;28.60;61.10
46159;DHT22;31888;44.512;26.104;2023-06-10T13:35:26;28.60;60.50
46159;DHT22;31888;44.512;26.104;2023-06-10T13:37:50;28.70;60.30
46159;DHT22;31888;44.512;26.104;2023-06-10T13:40:22;28.70;59.80
46159;DHT22;31888;44.512;26.104;2023-06-10T13:42:46;28.90;59.60
46159;DHT22;31888;44.512;26.104;2023-06-10T13:45:16;29.20;59.80
46159;DHT22;31888;44.512;26.104;2023-06-10T13:47:41;29.20;59.40
46159;DHT22;31888;44.512;26.104;2023-06-10T13:50:10;29.20;59.90
46159;DHT22;31888;44.512;26.104;2023-06-10T13:52:37;29.20;59.60
46159;DHT22;31888;44.512;26.104;2023-06-10T13:55:11;29.10;60.20
46159;DHT22;31888;44.512;26.104;2023-06-10T13:57:43;29.10;59.80
46159;DHT22;31888;44.512;26.104;2023-06-10T14:00:22;28.80;60.70
46159;DHT22;31888;44.512;26.104;2023-06-10T14:02:52;28.90;60.00
46159;DHT22;31888;44.512;26.104;2023-06-10T14:05:29;28.90;59.30
46159;DHT22;31888;44.512;26.104;2023-06-10T14:08:09;28.90;60.00
46159;DHT22;31888;44.512;26.104;2023-06-10T14:10:36;29.00;59.90
46159;DHT22;31888;44.512;26.104;2023-06-10T14:13:03;29.00;59.80
46159;DHT22;31888;44.512;26.104;2023-06-10T14:15:29;28.90;60.40
46159;DHT22;31888;44.512;26.104;2023-06-10T14:17:55;28.90;60.50
46159;DHT22;31888;44.512;26.104;2023-06-10T14:20:20;28.80;60.90
46159;DHT22;31888;44.512;26.104;2023-06-10T14:22:46;28.70;61.20
46159;DHT22;31888;44.512;26.104;2023-06-10T14:25:15;28.50;61.30
46159;DHT22;31888;44.512;26.104;2023-06-10T14:27:44;28.40;61.50
46159;DHT22;31888;44.512;26.104;2023-06-10T14:30:10;28.40;61.80
46159;DHT22;31888;44.512;26.104;2023-06-10T14:32:37;28.60;61.60
46159;DHT22;31888;44.512;26.104;2023-06-10T14:35:03;28.50;61.60
46159;DHT22;31888;44.512;26.104;2023-06-10T14:37:28;28.50;61.70
46159;DHT22;31888;44.512;26.104;2023-06-10T14:39:55;28.40;61.70
46159;DHT22;31888;44.512;26.104;2023-06-10T14:42:19;28.50;62.00
46159;DHT22;31888;44.512;26.104;2023-06-10T14:44:49;28.40;62.10
46159;DHT22;31888;44.512;26.104;2023-06-10T14:47:14;28.50;62.40
46159;DHT22;31888;44.512;26.104;2023-06-10T14:49:40;28.50;62.50
46159;DHT22;31888;44.512;26.104;2023-06-10T14:52:07;28.30;62.50
46159;DHT22;31888;44.512;26.104;2023-06-10T14:54:34;28.20;63.20
46159;DHT22;31888;44.512;26.104;2023-06-10T14:57:03;28.10;63.40
46159;DHT22;31888;44.512;26.104;2023-06-10T14:59:29;28.00;63.50
46159;DHT22;31888;44.512;26.104;2023-06-10T15:01:56;28.10;63.50
46159;DHT22;31888;44.512;26.104;2023-06-10T15:04:24;28.20;63.60
46159;DHT22;31888;44.512;26.104;2023-06-10T15:06:51;28.20;63.60
46159;DHT22;31888;44.512;26.104;2023-06-10T15:09:16;28.20;64.10
46159;DHT22;31888;44.512;26.104;2023-06-10T15:11:41;28.30;65.90
46159;DHT22;31888;44.512;26.104;2023-06-10T15:14:08;28.30;66.60
46159;DHT22;31888;44.512;26.104;2023-06-10T15:16:33;28.40;66.90
46159;DHT22;31888;44.512;26.104;2023-06-10T15:18:59;28.40;66.70
46159;DHT22;31888;44.512;26.104;2023-06-10T15:21:25;28.50;66.10
46159;DHT22;31888;44.512;26.104;2023-06-10T15:23:50;28.50;67.10
46159;DHT22;31888;44.512;26.104;2023-06-10T15:26:16;28.40;67.50
46159;DHT22;31888;44.512;26.104;2023-06-10T15:28:42;28.40;67.50
46159;DHT22;31888;44.512;26.104;2023-06-10T15:31:09;28.40;68.00
46159;DHT22;31888;44.512;26.104;2023-06-10T15:33:36;28.40;68.00